Date,TemperatureHighF,TemperatureAvgF,TemperatureLowF,DewpointHighF,DewpointAvgF,DewpointLowF,HumidityHigh,HumidityAvg,HumidityLow,PressureMaxIn,PressureMinIn,WindSpeedMaxMPH,WindSpeedAvgMPH,GustSpeedMaxMPH,PrecipitationSumIn
2013-1-1,57.1,51.8,48.6,47.0,44.9,43.0,83,77,68,30.11,30.04,10,2,0,0.00
2013-1-2,57.5,51.7,47.4,49.0,45.7,43.0,87,80,64,30.28,30.11,5,1,0,0.00
2013-1-3,59.2,53.3,49.1,50.0,45.7,36.0,87,76,55,30.37,30.28,8,1,0,0.00
2013-1-4,58.6,52.5,47.2,40.0,36.2,31.0,65,55,36,30.31,30.03,7,1,0,0.00
2013-1-5,55.7,51.5,47.4,39.0,35.4,31.0,67,55,41,30.02,29.75,7,1,0,0.00
2013-1-6,51.1,46.7,42.1,40.0,36.4,31.0,83,68,57,29.88,29.67,13,3,0,0.03
2013-1-7,52.1,45.1,40.0,32.0,27.8,21.0,64,52,38,29.96,29.82,11,3,0,0.00
2013-1-8,43.2,37.1,34.5,33.0,27.9,19.0,88,70,39,30.17,29.96,13,4,0,0.06
2013-1-9,44.8,39.6,34.6,32.0,26.0,22.0,67,59,49,30.21,30.14,7,1,0,0.00
2013-1-10,50.3,45.4,38.9,38.0,32.1,22.0,70,60,50,30.14,30.00,19,2,0,0.00
2013-1-11,60.1,55.0,47.9,52.0,48.5,38.0,93,79,64,29.99,29.78,22,5,0,0.09
2013-1-12,57.2,53.4,49.5,47.0,44.6,40.0,85,72,61,30.00,29.77,10,2,0,0.00
2013-1-13,58.0,51.5,46.0,43.0,40.7,35.0,76,67,43,30.19,30.00,6,1,0,0.00
2013-1-14,57.8,53.8,49.1,49.0,45.1,41.0,79,73,56,30.24,30.18,15,4,0,0.00
2013-1-15,58.8,56.1,51.1,52.0,48.2,45.0,85,75,66,30.23,29.98,21,7,0,0.02
2013-1-16,58.8,55.5,49.6,52.0,48.4,42.0,92,78,59,29.99,29.63,31,14,0,1.18
2013-1-17,58.2,55.1,49.7,52.0,46.1,41.0,81,72,61,29.75,29.61,27,9,0,0.00
2013-1-18,57.8,53.4,46.5,51.0,46.1,38.0,89,77,58,29.61,29.43,28,12,0,0.13
2013-1-19,54.5,50.2,46.0,42.0,39.2,37.0,78,66,54,29.83,29.50,13,3,0,0.01
2013-1-20,62.6,56.3,50.0,54.0,46.7,40.0,84,71,59,29.91,29.82,19,5,0,0.00
2013-1-21,63.9,59.9,56.3,54.0,49.2,40.0,86,69,42,29.89,29.62,25,8,0,0.00
2013-1-22,60.5,57.2,53.6,52.0,47.6,44.0,82,71,56,29.77,29.63,23,5,0,0.00
2013-1-23,58.9,55.4,53.6,47.0,43.3,39.0,75,64,51,29.92,29.76,18,3,0,0.00
2013-1-24,61.3,55.4,49.0,53.0,47.6,39.0,88,75,64,29.91,29.56,30,9,0,0.45
2013-1-25,56.6,52.3,47.5,49.0,44.9,41.0,89,76,62,29.62,29.45,35,9,0,0.52
2013-1-26,55.1,51.0,46.3,48.0,45.2,41.0,91,81,69,29.62,29.41,20,2,0,0.43
2013-1-27,52.2,47.9,45.6,44.0,41.4,40.0,90,78,66,29.91,29.63,8,2,0,0.00
2013-1-28,52.6,49.3,45.7,43.0,40.7,38.0,81,72,62,29.97,29.87,10,2,0,0.00
2013-1-29,50.2,47.9,45.5,42.0,39.8,36.0,84,73,66,30.07,29.96,10,2,0,0.00
2013-1-30,56.4,49.8,42.4,42.0,34.3,26.0,77,57,32,30.06,29.92,9,1,0,0.00
2013-1-31,58.2,52.8,47.3,45.0,37.9,26.0,66,58,35,29.98,29.81,14,3,0,0.00
2013-2-1,56.8,52.4,45.9,46.0,34.5,26.0,75,52,31,30.03,29.88,16,4,0,0.00
2013-2-2,61.9,56.8,51.8,53.0,47.7,43.0,86,72,59,29.88,29.73,20,7,0,0.00
2013-2-3,63.2,59.5,57.2,55.0,53.1,51.0,89,80,65,29.89,29.74,37,19,0,0.00
2013-2-4,64.6,59.9,57.1,55.0,52.3,48.0,89,77,55,29.95,29.88,27,5,0,0.00
2013-2-5,63.6,57.7,53.3,53.0,49.3,45.0,87,74,54,29.95,29.81,9,2,0,0.00
2013-2-6,59.0,55.0,51.0,52.0,47.4,43.0,87,76,63,29.81,29.64,13,3,0,0.00
2013-2-7,58.6,55.5,50.8,51.0,48.0,44.0,87,76,63,29.67,29.48,35,14,0,0.13
2013-2-8,55.5,52.4,48.9,45.0,41.3,38.0,80,66,56,29.71,29.50,23,6,0,0.04
2013-2-9,56.8,51.8,46.1,42.0,40.1,37.0,79,65,49,29.84,29.72,13,5,0,0.00
2013-2-10,55.4,51.9,48.6,41.0,38.7,36.0,71,61,51,29.84,29.76,12,4,0,0.00
2013-2-11,53.1,49.2,46.0,39.0,35.4,31.0,77,60,44,30.01,29.74,15,4,0,0.00
2013-2-12,57.2,51.9,44.7,48.0,41.1,33.0,76,67,50,30.03,29.97,21,5,0,0.00
2013-2-13,56.7,53.1,45.6,49.0,45.9,42.0,92,77,61,29.96,29.84,41,10,0,1.11
2013-2-14,54.0,48.8,46.4,46.0,44.7,43.0,91,86,71,29.86,29.66,13,2,0,0.38
2013-2-15,51.9,48.0,45.0,46.0,43.3,41.0,91,83,73,29.99,29.65,10,1,0,0.21
2013-2-16,54.7,50.5,46.9,45.0,43.3,41.0,86,77,63,30.02,29.96,11,2,0,0.13
2013-2-17,47.9,45.8,43.9,45.0,41.6,38.0,91,85,78,30.03,29.91,11,3,0,0.21
2013-2-18,52.4,47.5,42.4,40.0,38.4,36.0,83,71,57,30.05,30.01,6,1,0,0.00
2013-2-19,55.8,50.9,46.4,50.0,44.0,39.0,90,77,67,30.01,29.73,20,4,0,0.12
2013-2-20,57.0,51.4,45.3,44.0,37.7,33.0,77,61,41,30.02,29.79,12,3,0,0.00
2013-2-21,56.1,52.7,50.1,50.0,42.9,40.0,83,70,61,30.01,29.67,13,2,0,0.05
2013-2-22,58.1,52.5,48.5,53.0,49.2,46.0,95,88,75,29.70,29.53,21,3,0,2.75
2013-2-23,61.4,55.0,50.1,51.0,48.4,44.0,93,79,55,29.99,29.70,11,2,0,0.01
2013-2-24,65.6,59.2,51.1,55.0,48.5,45.0,89,69,49,30.05,29.98,15,5,0,0.00
2013-2-25,66.1,61.2,56.1,54.0,50.2,48.0,80,68,56,30.04,29.93,19,6,0,0.00
2013-2-26,62.3,58.4,52.9,54.0,48.1,40.0,88,70,46,30.00,29.92,25,6,0,0.00
2013-2-27,57.0,53.3,50.5,43.0,39.9,35.0,73,61,46,30.02,29.92,20,4,0,0.00
2013-2-28,53.9,49.6,46.3,42.0,39.6,38.0,78,69,59,30.17,30.02,11,3,0,0.00
2013-3-1,54.8,49.4,44.1,40.0,37.0,33.0,75,63,46,30.16,29.98,10,2,0,0.00
2013-3-2,55.8,51.5,46.0,45.0,42.4,39.0,81,72,60,29.98,29.84,10,2,0,0.00
2013-3-3,54.8,51.3,47.7,48.0,42.8,37.0,90,74,58,29.93,29.73,21,5,0,0.27
2013-3-4,59.2,51.4,44.6,43.0,39.4,36.0,77,65,46,30.14,29.93,11,2,0,0.00
2013-3-5,56.3,50.9,47.0,42.0,38.3,34.0,78,63,50,30.38,30.14,9,3,0,0.00
2013-3-6,55.0,50.1,43.0,40.0,35.2,29.0,68,58,40,30.36,30.11,7,1,0,0.00
2013-3-7,56.3,53.0,50.9,52.0,46.7,40.0,90,79,64,30.11,29.89,6,1,0,0.24
2013-3-8,60.2,55.1,51.4,52.0,49.9,48.0,90,83,65,29.89,29.82,8,2,0,0.00
2013-3-9,65.6,58.9,52.7,54.0,51.1,49.0,90,76,59,29.82,29.69,11,3,0,0.02
2013-3-10,65.3,60.4,56.4,52.0,49.1,45.0,77,67,51,29.78,29.68,12,3,0,0.00
2013-3-11,67.3,61.1,55.1,56.0,51.7,45.0,84,72,53,29.68,29.55,14,3,0,0.00
2013-3-12,66.0,60.5,56.0,47.0,43.9,40.0,67,56,40,29.68,29.55,14,4,0,0.00
2013-3-13,63.7,59.0,53.6,55.0,47.5,44.0,87,66,55,29.71,29.66,23,8,0,0.00
2013-3-14,68.5,62.7,56.8,55.0,46.9,38.0,87,59,36,29.67,29.27,38,15,0,0.00
2013-3-15,58.2,55.3,50.9,44.0,41.1,38.0,66,59,52,29.57,29.35,24,9,0,0.00
2013-3-16,55.0,50.4,46.8,40.0,36.5,34.0,73,60,48,29.96,29.56,14,4,0,0.00
2013-3-17,54.2,48.4,42.9,37.0,34.2,31.0,74,59,42,30.14,29.96,11,2,0,0.00
2013-3-18,53.9,50.7,46.5,48.0,41.3,36.0,84,71,57,30.15,29.92,15,5,0,0.01
2013-3-19,61.1,57.3,53.4,53.0,50.0,47.0,81,77,71,29.92,29.73,29,10,0,0.00
2013-3-20,65.9,60.5,53.4,55.0,48.7,43.0,82,66,44,29.87,29.77,12,2,0,0.00
2013-3-21,67.7,63.8,59.7,55.0,49.7,41.0,82,61,46,29.76,29.50,21,5,0,0.00
2013-3-22,61.2,56.6,52.5,43.0,37.1,32.0,69,49,36,29.72,29.51,26,10,0,0.00
2013-3-23,62.0,55.1,48.2,43.0,27.8,17.0,62,37,20,29.93,29.73,15,4,0,0.00
2013-3-24,63.3,57.2,49.6,50.0,44.1,37.0,76,62,54,29.97,29.89,24,6,0,0.00
2013-3-25,64.1,59.9,55.4,55.0,50.5,47.0,86,72,59,29.90,29.57,26,7,0,0.00
2013-3-26,64.5,59.4,56.6,54.0,48.4,45.0,85,68,54,29.62,29.49,22,8,0,0.00
2013-3-27,64.9,60.1,55.1,53.0,47.8,44.0,70,64,54,29.80,29.62,19,5,0,0.00
2013-3-28,64.3,58.6,55.6,53.0,50.1,46.0,85,74,61,30.02,29.80,10,2,0,0.08
2013-3-29,63.7,58.9,53.9,54.0,51.6,49.0,85,77,63,30.02,29.95,8,1,0,0.00
2013-3-30,72.1,64.3,57.1,55.0,50.9,46.0,82,63,40,29.96,29.78,16,3,0,0.00
2013-3-31,67.6,63.0,58.5,56.0,52.2,48.0,80,68,53,29.82,29.69,23,5,0,0.00
2013-4-1,69.5,62.9,56.3,55.0,45.4,36.0,86,56,30,29.85,29.73,21,4,0,0.00
2013-4-2,70.1,64.4,57.5,53.0,46.0,42.0,69,52,37,29.84,29.53,18,5,0,0.00
2013-4-3,67.2,62.9,58.6,57.0,48.2,41.0,87,61,39,29.64,29.42,21,6,0,0.00
2013-4-4,68.7,61.1,54.3,47.0,44.1,40.0,70,55,35,29.89,29.64,22,6,0,0.00
2013-4-5,70.5,62.8,57.8,50.0,43.7,19.0,68,52,14,29.91,29.75,25,8,0,0.00
2013-4-6,71.2,65.4,58.8,53.0,47.4,43.0,68,53,36,29.77,29.67,18,2,0,0.00
2013-4-7,70.6,64.8,60.3,57.0,51.1,46.0,85,62,47,29.66,29.27,25,7,0,0.01
2013-4-8,60.4,58.4,56.3,52.0,48.4,46.0,84,70,62,29.85,29.37,14,4,0,0.02
2013-4-9,63.8,58.8,53.7,49.0,47.3,44.0,79,66,50,29.95,29.85,14,4,0,0.00
2013-4-10,66.1,61.1,54.3,50.0,47.3,44.0,79,61,45,29.96,29.87,18,4,0,0.00
2013-4-11,70.2,63.4,55.1,53.0,46.7,42.0,69,56,38,29.99,29.88,12,3,0,0.00
2013-4-12,68.7,62.9,57.3,54.0,47.7,41.0,72,58,41,30.03,29.95,15,4,0,0.00
2013-4-13,72.2,65.7,59.5,51.0,46.4,43.0,61,50,40,30.07,30.01,13,3,0,0.00
2013-4-14,74.9,66.4,60.4,52.0,47.9,44.0,64,52,35,30.05,29.99,14,3,0,0.00
2013-4-15,63.2,58.9,55.1,47.0,44.0,38.0,68,58,40,30.05,29.97,13,4,0,0.01
2013-4-16,63.6,57.2,50.6,47.0,42.9,38.0,85,60,39,30.04,29.97,16,4,0,0.05
2013-4-17,66.0,59.5,54.3,41.0,34.8,26.0,60,42,23,30.06,30.00,14,4,0,0.00
2013-4-18,63.0,58.0,53.9,41.0,32.8,26.0,61,40,25,30.05,29.97,15,4,0,0.00
2013-4-19,61.6,56.6,51.4,45.0,37.8,34.0,69,50,40,29.98,29.90,10,2,0,0.00
2013-4-20,65.4,58.2,51.7,45.0,40.3,37.0,66,52,40,30.00,29.90,13,2,0,0.00
2013-4-21,71.4,62.1,54.4,47.0,40.3,37.0,60,46,30,30.00,29.90,11,2,0,0.00
2013-4-22,71.9,64.6,57.6,50.0,41.9,38.0,65,44,32,30.03,29.94,9,2,0,0.00
2013-4-23,71.6,64.8,57.5,52.0,45.5,40.0,64,50,41,30.18,30.03,10,1,0,0.00
2013-4-24,77.4,67.1,60.3,52.0,45.1,38.0,64,47,27,30.27,30.18,10,2,0,0.00
2013-4-25,80.5,72.4,63.4,51.0,45.2,41.0,46,38,31,30.25,30.12,9,2,0,0.00
2013-4-26,81.6,72.4,62.9,54.0,43.6,35.0,55,37,22,30.13,29.96,8,2,0,0.00
2013-4-27,77.9,71.6,64.5,46.0,42.5,37.0,46,36,28,29.97,29.87,15,4,0,0.00
2013-4-28,67.5,64.3,62.4,51.0,45.8,42.0,61,52,42,29.94,29.90,2,0,0,0.00
2013-5-9,64.6,64.2,63.8,54.0,53.3,52.0,70,68,65,29.86,29.84,6,3,0,0.00
2013-5-10,70.6,65.7,59.8,57.0,54.2,51.0,86,67,53,29.87,29.80,9,3,0,0.04
2013-5-11,75.8,68.3,61.3,58.0,53.7,50.0,73,60,47,29.85,29.72,20,5,0,0.00
2013-5-12,76.9,70.9,66.0,58.0,55.9,52.0,75,60,45,29.74,29.61,15,5,0,0.00
2013-5-13,71.8,67.3,63.3,58.0,51.9,49.0,77,58,46,29.67,29.61,13,3,0,0.06
2013-5-14,72.6,64.7,59.2,56.0,52.3,50.0,86,65,48,29.82,29.64,10,2,0,0.11
2013-5-15,74.7,68.3,61.1,55.0,52.3,49.0,73,57,44,29.84,29.79,19,5,0,0.00
2013-5-16,74.5,68.9,63.4,60.0,53.7,47.0,74,59,39,29.88,29.78,16,4,0,0.00
2013-5-17,78.7,71.2,64.5,61.0,56.4,50.0,77,61,42,29.90,29.78,14,3,0,0.00
2013-5-18,82.0,74.4,66.5,62.0,58.8,56.0,73,59,48,29.96,29.86,12,2,0,0.00
2013-5-19,87.1,78.4,71.9,63.0,57.5,54.0,61,49,35,29.93,29.86,12,2,0,0.00
2013-5-20,85.9,78.6,71.5,62.0,59.2,55.0,62,52,44,29.89,29.84,11,3,0,0.00
2013-5-21,85.5,78.4,72.0,63.0,56.6,50.0,63,48,31,29.90,29.82,12,3,0,0.00
2013-5-22,84.5,76.5,70.8,62.0,55.1,40.0,65,49,21,29.86,29.69,18,3,0,0.00
2013-5-23,81.3,76.4,69.2,62.0,52.8,37.0,69,45,21,29.69,29.54,27,11,0,0.00
2013-5-24,76.0,70.6,66.7,54.0,50.9,48.0,57,50,42,29.89,29.68,22,8,0,0.00
2013-5-25,74.8,70.7,65.3,56.0,51.3,46.0,57,51,37,29.92,29.85,16,5,0,0.00
2013-5-26,80.2,73.1,66.2,54.0,50.4,45.0,60,46,31,29.92,29.81,14,5,0,0.00
2013-5-27,75.4,70.1,65.2,50.0,43.3,36.0,51,39,25,29.93,29.87,15,4,0,0.00
2013-5-28,73.3,69.4,63.8,61.0,52.8,46.0,75,56,42,29.92,29.72,11,3,0,0.00
2013-5-29,82.7,76.3,71.2,61.0,53.8,38.0,62,46,25,29.72,29.53,12,4,0,0.00
2013-5-30,82.7,75.1,69.4,63.0,54.2,46.0,72,50,32,29.70,29.62,15,6,0,0.00
2013-5-31,77.8,72.9,68.2,57.0,49.1,43.0,59,44,30,29.77,29.62,14,6,0,0.00
2013-6-1,70.8,67.1,63.9,58.0,48.8,41.0,76,53,34,29.82,29.75,22,5,0,0.02
2013-6-2,73.8,68.3,62.4,57.0,52.0,46.0,77,57,38,29.80,29.63,14,4,0,0.06
2013-6-3,75.6,69.7,62.9,58.0,50.8,46.0,65,52,36,29.84,29.79,23,4,0,0.00
2013-6-4,76.8,72.1,65.9,57.0,53.6,47.0,74,54,36,29.86,29.78,26,5,0,0.00
2013-6-5,78.1,72.8,66.7,56.0,51.6,45.0,61,48,31,29.91,29.84,16,4,0,0.00
2013-6-6,80.2,73.1,66.8,62.0,55.5,51.0,66,55,37,29.97,29.89,14,4,0,0.00
2013-6-7,77.2,72.9,69.5,59.0,54.9,49.0,68,54,38,29.95,29.80,11,2,0,0.00
2013-6-8,81.7,75.2,69.5,61.0,57.1,52.0,69,54,41,29.82,29.76,13,2,0,0.00
2013-6-9,79.3,73.7,67.5,63.0,58.5,54.0,74,60,46,29.91,29.82,13,3,0,0.00
2013-6-10,83.2,76.5,69.8,61.0,57.6,55.0,63,53,42,29.91,29.78,16,4,0,0.00
2013-6-11,85.3,78.1,73.0,60.0,56.8,52.0,61,49,32,29.79,29.57,16,4,0,0.00
2013-6-12,78.6,72.2,65.4,62.0,55.1,50.0,76,56,44,29.74,29.62,12,3,0,0.17
2013-6-13,74.9,69.4,65.6,60.0,57.5,55.0,78,66,52,29.81,29.71,9,2,0,0.01
2013-6-14,78.5,71.5,65.9,62.0,58.4,57.0,78,64,49,29.89,29.80,9,2,0,0.02
2013-6-15,82.9,75.5,68.4,63.0,58.0,56.0,66,55,44,29.90,29.85,12,3,0,0.00
2013-6-16,87.5,78.8,71.4,68.0,61.0,55.0,75,56,41,29.92,29.87,10,2,0,0.00
2013-6-17,92.6,83.5,74.5,66.0,58.2,53.0,70,43,31,29.94,29.89,9,2,0,0.00
2013-6-18,89.6,84.2,78.5,61.0,58.0,54.0,49,41,32,29.93,29.88,14,4,0,0.00
2013-6-19,89.7,83.5,78.0,60.0,56.5,54.0,48,40,30,29.89,29.81,13,5,0,0.00
2013-6-20,91.0,84.8,80.2,60.0,54.9,51.0,50,36,29,29.91,29.80,15,6,0,0.00
2013-6-21,87.3,81.4,76.5,60.0,56.3,52.0,51,43,35,29.91,29.85,18,5,0,0.00
2013-6-22,92.2,83.7,75.5,55.0,50.4,40.0,47,33,17,29.88,29.80,13,3,0,0.00
2013-6-23,93.3,84.7,77.9,64.0,56.4,46.0,56,39,29,29.82,29.73,10,3,0,0.00
2013-6-24,92.8,84.3,78.8,63.0,57.2,43.0,55,41,22,29.76,29.71,18,4,0,0.00
2013-6-25,89.6,83.7,77.8,61.0,57.8,53.0,52,42,29,29.75,29.70,13,4,0,0.00
2013-6-26,89.8,82.4,76.7,69.0,60.4,54.0,68,48,37,29.84,29.74,10,3,0,0.00
2013-6-27,89.2,82.2,77.2,67.0,62.6,59.0,69,52,40,29.87,29.80,14,2,0,0.00
2013-6-28,85.3,79.5,74.4,68.0,63.0,59.0,72,58,45,29.88,29.83,12,3,0,0.00
2013-6-29,83.7,78.6,74.1,66.0,58.8,50.0,70,52,38,29.88,29.71,15,4,0,0.00
2013-6-30,82.3,76.2,71.5,59.0,52.9,47.0,56,45,31,29.82,29.72,16,5,0,0.00
2013-7-1,85.2,77.2,70.9,62.0,54.0,48.0,65,46,29,29.97,29.83,10,3,0,0.00
2013-7-2,84.8,78.3,71.5,64.0,56.5,50.0,67,48,31,29.98,29.89,13,3,0,0.00
2013-7-3,85.6,78.7,72.6,60.0,54.3,51.0,60,43,35,29.93,29.83,10,2,0,0.00
2013-7-4,87.1,80.0,73.0,57.0,52.7,48.0,46,39,33,29.88,29.80,11,2,0,0.00
2013-7-5,86.0,79.7,73.9,61.0,54.1,49.0,48,41,32,29.87,29.81,14,2,0,0.00
2013-7-6,85.2,79.7,74.5,63.0,58.9,56.0,63,50,39,29.85,29.79,13,4,0,0.00
2013-7-7,87.3,81.8,75.9,62.0,60.4,57.0,60,49,41,29.91,29.80,14,5,0,0.00
2013-7-8,90.8,83.6,76.9,60.0,56.7,54.0,50,40,30,29.93,29.88,10,4,0,0.00
2013-7-9,90.9,84.8,78.7,62.0,58.1,54.0,49,41,33,29.93,29.78,11,4,0,0.00
2013-7-10,90.6,83.1,77.0,63.0,59.0,53.0,59,45,33,29.81,29.69,12,3,0,0.00
2013-7-11,90.1,82.5,76.2,65.0,57.6,52.0,61,43,33,29.79,29.71,11,2,0,0.00
2013-7-12,89.9,83.2,76.6,67.0,61.0,57.0,62,48,37,29.86,29.78,10,3,0,0.00
2013-7-13,89.2,83.7,77.4,63.0,60.3,57.0,53,46,38,29.87,29.81,12,2,0,0.00
2013-7-14,91.6,83.6,77.5,60.0,57.3,55.0,50,41,30,29.87,29.79,10,2,0,0.00
2013-7-15,88.2,81.9,77.0,60.0,56.1,53.0,49,41,35,29.86,29.79,19,3,0,0.00
2013-7-16,87.5,82.0,76.4,59.0,55.9,53.0,50,41,34,29.88,29.81,9,3,0,0.00
2013-7-17,80.9,76.9,73.1,61.0,57.9,53.0,64,52,43,29.94,29.87,14,4,0,0.00
2013-7-18,84.3,78.6,73.5,59.0,54.9,50.0,59,45,32,29.97,29.90,18,6,0,0.00
2013-7-19,85.7,79.5,74.4,56.0,52.8,48.0,50,40,31,29.95,29.86,13,4,0,0.00
2013-7-20,88.9,81.2,73.4,58.0,53.0,47.0,50,38,27,29.86,29.76,10,3,0,0.00
2013-7-21,91.7,84.0,75.3,57.0,54.3,49.0,45,36,28,29.83,29.77,9,2,0,0.00
2013-7-22,84.5,79.2,75.0,64.0,58.7,52.0,68,50,36,29.84,29.79,21,5,0,0.00
2013-7-23,86.3,79.4,72.7,60.0,53.1,44.0,58,42,24,29.84,29.79,15,3,0,0.00
2013-7-24,93.0,83.7,74.8,51.0,49.5,47.0,40,31,22,29.86,29.82,9,2,0,0.00
2013-7-25,92.4,85.1,76.9,64.0,54.2,49.0,51,35,24,29.89,29.80,15,2,0,0.00
2013-7-26,95.5,86.8,78.7,63.0,54.9,50.0,49,34,24,29.84,29.77,10,2,0,0.00
2013-7-27,91.8,86.3,81.9,59.0,54.2,51.0,37,33,29,29.87,29.79,14,3,0,0.00
2013-7-28,91.7,85.2,78.7,59.0,56.1,52.0,50,37,31,29.95,29.86,11,3,0,0.00
2013-7-29,93.3,86.2,79.0,57.0,54.1,49.0,47,34,22,29.95,29.87,12,3,0,0.00
2013-7-30,95.6,87.9,80.2,68.0,59.1,53.0,58,39,28,29.87,29.70,11,3,0,0.00
2013-7-31,95.8,88.4,82.6,66.0,61.8,58.0,54,41,33,29.74,29.66,15,3,0,0.00
2013-8-3,90.0,82.9,82.0,60.0,47.7,-99.9,38,32,30,29.89,0.00,9,-43,0,0.00
2013-8-4,94.0,86.7,79.4,60.0,55.7,51.0,46,35,23,29.89,29.85,16,4,0,0.00
2013-8-5,87.0,82.2,76.9,62.0,54.5,47.0,50,39,26,29.91,29.85,13,5,0,0.00
2013-8-6,86.9,81.9,77.4,57.0,53.1,48.0,46,38,26,29.88,29.82,15,6,0,0.00
2013-8-7,88.0,82.5,78.0,56.0,53.5,50.0,45,37,28,29.87,29.80,15,6,0,0.00
2013-8-8,91.5,83.8,78.4,57.0,53.3,48.0,45,36,23,29.90,29.86,16,5,0,0.00
2013-8-9,92.3,85.2,79.2,61.0,55.5,49.0,49,37,26,29.88,29.76,13,4,0,0.00
2013-8-10,90.4,82.7,76.9,69.0,60.4,53.0,75,48,32,29.76,29.60,14,3,0,0.00
2013-8-11,88.6,82.6,78.0,67.0,56.8,48.0,70,43,25,29.80,29.63,12,4,0,0.00
2013-8-12,89.8,83.8,77.1,62.0,54.8,51.0,51,38,27,29.87,29.80,14,3,0,0.00
2013-8-13,91.8,84.9,77.5,58.0,53.7,49.0,45,35,25,29.86,29.80,12,3,0,0.00
2013-8-14,93.3,85.8,78.8,57.0,52.6,48.0,46,33,23,29.81,29.75,15,3,0,0.00
2013-8-15,93.2,85.8,80.2,60.0,55.2,51.0,46,36,25,29.82,29.75,12,4,0,0.00
2013-8-16,87.9,82.6,76.4,66.0,63.1,58.0,68,52,44,29.83,29.78,12,5,0,0.00
2013-8-17,87.3,81.7,76.0,65.0,63.3,61.0,68,54,43,29.87,29.79,13,6,0,0.00
2013-8-18,89.1,82.8,76.9,61.0,54.8,51.0,52,39,30,29.92,29.84,19,4,0,0.00
2013-8-19,91.7,83.7,76.5,59.0,54.2,49.0,45,37,27,29.89,29.82,10,3,0,0.00
2013-8-20,92.4,84.9,77.8,59.0,53.4,46.0,45,35,22,29.84,29.77,11,3,0,0.00
2013-8-21,86.8,81.6,77.4,61.0,57.1,51.0,53,44,35,29.84,29.79,12,4,0,0.00
2013-8-22,85.7,79.7,74.2,63.0,59.4,56.0,60,50,37,29.82,29.77,11,4,0,0.00
2013-8-23,87.9,81.4,75.7,61.0,55.5,48.0,58,42,29,29.88,29.80,11,2,0,0.00
2013-8-24,86.5,81.0,75.0,59.0,52.3,45.0,44,37,29,29.89,29.82,14,3,0,0.00
2013-8-25,87.4,81.1,76.2,64.0,57.3,51.0,53,44,33,29.83,29.78,13,3,0,0.00
2013-8-26,89.0,82.3,76.9,68.0,58.6,52.0,58,45,34,29.84,29.78,14,3,0,0.00
2013-8-27,92.1,84.2,78.6,66.0,59.9,52.0,56,45,30,29.84,29.77,12,3,0,0.00
2013-8-28,94.5,86.4,79.5,64.0,61.2,58.0,57,44,30,29.82,29.75,15,4,0,0.00
2013-8-29,91.5,85.0,80.5,68.0,62.5,56.0,64,48,30,29.85,29.79,13,3,0,0.00
2013-8-30,89.2,83.1,78.8,68.0,61.2,56.0,67,48,33,29.88,29.79,10,2,0,0.00
2013-8-31,85.4,79.7,75.9,62.0,57.0,52.0,55,46,36,29.94,29.84,11,3,0,0.00
2013-9-1,84.6,78.4,72.4,61.0,53.5,43.0,68,43,30,30.01,29.93,9,2,0,0.00
2013-9-2,86.8,78.8,72.5,57.0,48.9,40.0,47,36,26,30.03,29.95,18,2,0,0.00
2013-9-3,85.8,77.9,72.3,65.0,59.8,54.0,65,54,40,30.03,29.91,13,3,0,0.00
2013-9-4,82.2,78.1,73.4,61.0,57.0,52.0,60,49,41,30.05,29.95,10,3,0,0.00
2013-9-5,81.2,75.3,69.7,55.0,51.3,47.0,52,43,32,30.05,29.91,15,4,0,0.00
2013-9-6,80.8,76.0,71.0,64.0,59.2,51.0,65,56,47,29.93,29.83,14,3,0,0.00
2013-9-7,79.4,75.5,72.8,66.0,63.1,60.0,70,65,60,29.96,29.88,7,1,0,0.00
2013-9-8,86.0,77.9,71.9,60.0,55.5,47.0,65,47,35,30.06,29.96,13,2,0,0.00
2013-9-9,83.7,76.7,70.9,57.0,50.6,46.0,61,41,30,30.09,30.02,12,3,0,0.00
2013-9-10,82.5,76.7,71.3,63.0,57.3,47.0,61,52,38,30.05,29.95,11,2,0,0.00
2013-9-11,86.1,79.4,73.6,68.0,62.4,58.0,64,56,44,29.97,29.89,11,3,0,0.00
2013-9-12,88.8,82.5,76.4,67.0,61.3,54.0,60,49,40,29.91,29.85,11,3,0,0.00
2013-9-13,86.0,80.4,75.5,69.0,64.2,60.0,69,58,48,29.90,29.84,15,4,0,0.00
2013-9-14,84.4,77.5,73.2,61.0,55.2,44.0,58,47,24,29.96,29.88,14,4,0,0.00
2013-9-15,82.0,75.6,69.4,61.0,51.1,36.0,69,45,20,29.95,29.84,13,3,0,0.00
2013-9-16,79.6,75.0,72.0,65.0,59.6,53.0,68,59,42,29.84,29.59,14,5,0,0.00
2013-9-17,79.8,74.9,69.3,64.0,59.7,56.0,71,60,46,29.67,29.59,18,5,0,0.00
2013-9-18,83.2,77.4,72.4,63.0,57.0,52.0,67,51,34,29.63,29.57,16,6,0,0.00
2013-9-19,81.1,75.5,70.4,64.0,57.7,53.0,69,55,40,29.70,29.61,15,4,0,0.00
2013-9-20,80.2,75.4,70.9,63.0,60.1,57.0,72,60,46,29.88,29.70,15,3,0,0.00
2013-9-21,79.0,73.3,69.6,63.0,59.2,57.0,77,62,49,29.98,29.89,13,2,0,0.00
2013-9-22,74.4,70.4,66.3,57.0,53.1,51.0,62,55,44,30.02,29.98,11,3,0,0.00
2013-9-23,76.2,69.7,63.7,54.0,49.8,46.0,66,50,36,30.00,29.88,11,2,0,0.00
2013-9-24,78.7,71.5,65.2,60.0,53.9,46.0,65,55,40,29.90,29.84,12,3,0,0.00
2013-9-25,79.5,73.1,66.7,64.0,59.0,56.0,75,62,46,29.96,29.89,15,3,0,0.00
2013-9-26,79.6,73.5,67.7,65.0,60.4,55.0,82,65,43,29.96,29.84,11,3,0,0.00
2013-9-27,82.0,75.2,69.0,63.0,58.6,53.0,73,58,37,29.87,29.80,12,3,0,0.00
2013-9-28,80.1,74.1,68.5,64.0,58.6,54.0,71,59,46,29.89,29.84,12,3,0,0.00
2013-9-29,80.5,74.8,70.2,64.0,60.2,54.0,71,61,43,29.88,29.81,14,3,0,0.00
2013-9-30,85.2,75.3,68.9,68.0,63.3,57.0,87,67,40,29.83,29.59,26,6,0,0.00
2013-10-1,77.2,72.2,66.2,69.0,62.7,57.0,88,73,52,29.60,29.48,26,6,0,0.25
2013-10-2,74.2,69.0,61.1,60.0,55.8,53.0,80,63,50,29.88,29.57,11,3,0,0.02
2013-10-3,64.5,59.9,57.9,55.0,49.8,45.0,85,70,57,30.20,29.89,13,4,0,0.16
2013-10-4,61.1,57.3,55.3,45.0,43.5,42.0,68,61,54,30.29,30.19,10,4,0,0.00
2013-10-5,63.5,57.3,53.2,43.0,42.1,41.0,64,57,45,30.30,30.20,11,3,0,0.00
2013-10-6,65.7,58.7,53.5,46.0,43.2,36.0,69,57,46,30.27,30.19,9,2,0,0.00
2013-10-7,69.8,61.6,55.1,48.0,45.7,43.0,72,57,39,30.28,30.22,11,2,0,0.00
2013-10-8,74.3,65.4,59.9,54.0,48.5,45.0,63,55,38,30.27,30.19,6,1,0,0.00
2013-10-9,72.9,65.9,58.9,55.0,49.4,43.0,68,57,34,30.21,30.09,7,1,0,0.00
2013-10-10,70.4,65.8,61.8,63.0,58.5,53.0,86,77,68,30.10,30.00,10,2,0,0.02
2013-10-11,79.5,71.0,63.8,66.0,59.7,56.0,79,68,48,30.13,30.03,10,1,0,0.00
2013-10-12,83.0,72.9,65.9,68.0,63.4,59.0,87,74,45,30.15,30.08,7,2,0,0.00
2013-10-13,82.3,73.8,66.7,66.0,60.4,54.0,87,65,41,30.11,30.05,5,1,0,0.00
2013-10-14,78.3,72.3,65.2,58.0,54.3,50.0,66,54,42,30.09,30.02,6,2,0,0.00
2013-10-15,75.5,70.4,65.9,64.0,59.6,54.0,77,69,59,30.08,29.92,11,2,0,0.00
2013-10-16,72.2,69.5,63.9,66.0,61.7,59.0,88,77,63,29.92,29.53,15,5,0,0.23
2013-10-17,69.4,65.6,59.3,65.0,50.8,39.0,87,61,36,29.70,29.46,16,4,0,0.06
2013-10-18,73.7,66.6,61.7,56.0,48.9,45.0,67,54,40,29.97,29.70,12,4,0,0.00
2013-10-19,73.4,67.4,62.9,54.0,44.6,40.0,68,45,33,30.28,29.98,11,3,0,0.00
2013-10-20,71.8,64.9,59.9,50.0,46.3,43.0,68,52,36,30.35,30.28,10,1,0,0.00
2013-10-21,70.6,64.1,58.0,54.0,46.7,41.0,74,54,38,30.28,30.15,7,1,0,0.00
2013-10-22,72.6,65.1,58.7,57.0,53.7,50.0,77,67,54,30.16,30.07,7,1,0,0.00
2013-10-23,77.8,69.0,61.1,54.0,50.8,43.0,71,53,42,30.16,30.09,12,2,0,0.00
2013-10-24,74.4,67.6,63.7,53.0,49.4,43.0,66,53,42,30.16,30.10,12,3,0,0.00
2013-10-25,75.1,66.0,59.3,51.0,45.4,35.0,63,48,34,30.12,30.06,9,2,0,0.00
2013-10-26,75.0,65.4,57.3,47.0,38.1,28.0,49,37,25,30.14,30.08,13,2,0,0.00
2013-10-27,74.7,66.1,58.0,51.0,39.5,24.0,67,39,22,30.11,30.03,7,1,0,0.00
2013-10-28,72.4,64.7,58.3,59.0,51.8,42.0,77,64,48,30.06,30.00,7,1,0,0.00
2013-10-29,73.7,65.8,58.6,60.0,54.2,48.0,79,67,45,30.01,29.94,7,1,0,0.00
2013-10-30,73.4,66.4,60.6,60.0,54.7,49.0,77,67,58,30.02,29.95,8,1,0,0.00
2013-10-31,75.7,68.0,61.1,54.0,49.8,44.0,67,53,45,30.11,30.01,10,2,0,0.00
2013-11-1,71.3,65.0,60.7,52.0,50.1,47.0,72,59,47,30.14,30.08,7,2,0,0.00
2013-11-2,68.8,62.9,57.7,54.0,51.2,49.0,79,66,54,30.11,30.03,9,1,0,0.00
2013-11-3,70.1,64.3,59.2,61.0,57.2,54.0,85,78,65,30.06,29.98,10,3,0,0.00
2013-11-4,71.8,66.4,61.6,61.0,56.9,52.0,84,72,54,30.01,29.89,9,3,0,0.00
2013-11-5,70.8,67.6,62.7,62.0,58.9,54.0,82,74,58,29.88,29.67,34,9,0,0.00
2013-11-6,69.9,63.2,59.7,59.0,56.6,54.0,89,79,58,29.67,29.53,29,7,0,0.70
2013-11-7,68.3,63.0,59.4,58.0,49.5,36.0,87,64,33,30.06,29.63,9,2,0,0.02
2013-11-8,70.1,62.9,56.6,52.0,46.3,39.0,70,55,45,30.11,30.05,6,1,0,0.00
2013-11-9,70.8,63.3,56.8,56.0,50.7,46.0,81,64,51,30.07,29.97,6,1,0,0.00
2013-11-10,68.3,63.8,59.6,59.0,55.9,51.0,83,76,66,29.97,29.82,9,2,0,0.00
2013-11-11,69.1,65.6,60.7,63.0,60.1,56.0,88,82,73,29.93,29.78,28,8,0,0.82
2013-11-12,70.1,67.0,63.8,61.0,59.6,58.0,83,77,70,30.02,29.93,13,3,0,0.01
2013-11-13,69.0,63.6,60.0,57.0,53.9,51.0,84,71,59,30.02,29.91,12,3,0,0.09
2013-11-14,62.9,59.6,56.9,56.0,53.3,52.0,92,80,70,29.93,29.82,14,4,0,0.70
2013-11-15,63.3,58.5,56.0,53.0,51.2,50.0,82,77,65,30.08,29.86,9,2,0,0.00
2013-11-16,61.2,57.7,55.8,52.0,49.1,45.0,83,73,65,30.14,30.07,11,4,0,0.00
2013-11-17,61.1,56.1,53.1,48.0,43.9,42.0,74,64,52,30.14,30.07,12,2,0,0.00
2013-11-18,61.4,56.0,51.9,46.0,44.5,42.0,72,66,54,30.11,30.05,11,2,0,0.00
2013-11-19,63.3,58.1,52.6,53.0,47.4,44.0,77,68,56,30.11,29.99,8,1,0,0.00
2013-11-20,67.7,64.5,60.7,62.0,58.0,54.0,90,79,72,29.98,29.83,25,7,0,0.36
2013-11-21,68.0,63.4,56.8,59.0,55.0,52.0,90,75,62,29.85,29.72,26,6,0,0.21
2013-11-22,65.4,59.6,55.9,54.0,51.5,48.0,92,76,55,29.77,29.66,8,1,0,0.01
2013-11-23,66.0,61.8,55.8,58.0,53.2,50.0,84,74,63,29.77,29.70,26,5,0,0.00
2013-11-24,65.6,60.6,58.2,59.0,54.1,49.0,90,79,66,29.75,29.63,33,8,0,0.67
2013-11-25,62.7,59.0,55.1,52.0,48.6,45.0,81,69,53,29.70,29.66,10,1,0,0.00
2013-11-26,63.0,58.1,54.4,53.0,49.7,46.0,82,74,58,29.75,29.65,11,1,0,0.02
2013-11-27,60.0,55.8,51.4,49.0,41.4,34.0,79,60,39,30.18,29.74,12,2,0,0.00
2013-11-28,58.0,52.6,49.3,42.0,38.4,34.0,72,59,44,30.28,30.17,7,1,0,0.00
2013-11-29,58.7,52.8,48.2,43.0,39.6,34.0,72,61,53,30.20,30.07,9,1,0,0.00
2013-11-30,57.0,54.7,51.4,49.0,45.4,41.0,77,71,66,30.10,30.00,18,2,0,0.06
2013-12-1,64.0,60.1,53.9,56.0,53.3,48.0,83,78,74,30.03,29.87,25,7,0,0.09
2013-12-2,62.2,59.7,56.4,58.0,55.4,51.0,92,86,80,30.05,29.91,14,4,0,0.62
2013-12-3,57.0,49.3,43.6,52.0,41.5,35.0,84,75,64,30.16,30.04,22,8,0,0.02
2013-12-4,48.3,45.3,42.8,39.0,36.2,32.0,84,71,59,30.12,30.04,10,3,0,0.02
2013-12-5,58.8,49.1,42.1,36.0,32.1,25.0,76,54,34,30.07,30.01,6,1,0,0.00
2013-12-6,58.0,52.0,44.8,45.0,36.0,24.0,70,55,40,30.05,29.85,8,2,0,0.00
2013-12-7,58.9,52.5,47.1,49.0,40.4,28.0,77,64,48,30.20,29.83,10,2,0,0.00
2013-12-8,52.8,47.1,41.6,30.0,25.9,22.0,62,45,32,30.39,30.20,8,1,0,0.00
2013-12-9,55.7,50.5,43.8,42.0,29.7,22.0,69,46,28,30.39,30.19,7,2,0,0.00
2013-12-10,59.8,52.5,45.0,43.0,37.5,30.0,81,58,40,30.33,30.09,15,4,0,0.01
2013-12-11,44.7,42.1,39.7,30.0,23.6,18.0,57,48,34,30.48,30.34,19,7,0,0.00
2013-12-12,50.1,44.4,38.0,36.0,27.5,17.0,70,53,29,30.43,30.22,9,2,0,0.00
2013-12-13,48.7,46.5,44.3,40.0,38.9,36.0,82,75,70,30.23,30.13,8,2,0,0.00
2013-12-14,55.8,49.2,43.1,45.0,39.6,35.0,81,70,53,30.35,30.18,6,1,0,0.00
2013-12-15,59.5,53.6,48.4,49.0,45.7,43.0,85,75,60,30.35,30.28,7,1,0,0.00
2013-12-16,54.9,51.7,48.6,47.0,43.6,38.0,85,74,62,30.37,30.27,10,3,0,0.00
2013-12-17,49.0,47.8,45.3,40.0,38.0,35.0,75,69,61,30.41,30.32,13,5,0,0.00
2013-12-18,50.4,46.4,44.1,40.0,38.1,37.0,76,73,62,30.33,30.21,7,2,0,0.00
2013-12-19,53.4,47.8,44.9,41.0,38.1,36.0,82,70,53,30.27,30.20,7,1,0,0.01
2013-12-20,56.3,48.3,42.8,40.0,36.2,34.0,76,64,46,30.44,30.27,5,1,0,0.00
2013-12-21,57.5,50.1,44.9,45.0,41.2,37.0,82,72,57,30.50,30.43,5,1,0,0.00
2013-12-22,60.9,51.0,44.9,40.0,35.3,29.0,70,56,32,30.49,30.37,7,0,0,0.00
2013-12-23,56.7,49.1,43.7,42.0,38.1,32.0,80,67,50,30.37,30.27,5,1,0,0.00
2013-12-24,54.5,51.0,47.8,47.0,43.9,42.0,82,77,67,30.30,30.15,7,1,0,0.00
2013-12-25,61.0,56.1,51.5,51.0,48.3,46.0,84,75,65,30.19,30.03,12,3,0,0.00
2013-12-26,60.8,56.9,52.4,54.0,51.1,48.0,88,81,71,30.04,29.84,27,4,0,0.05
2013-12-27,60.2,55.9,51.5,54.0,51.4,49.0,92,85,68,29.84,29.75,32,9,0,1.03
2013-12-28,57.2,53.7,51.5,50.0,48.8,43.0,92,83,69,29.91,29.78,15,4,0,0.06
2013-12-29,61.0,54.5,50.6,46.0,43.1,39.0,78,66,52,30.06,29.90,8,1,0,0.00
2013-12-30,61.5,53.8,48.1,45.0,41.4,38.0,76,64,47,30.11,30.04,7,1,0,0.00
2013-12-31,51.7,49.4,47.3,44.0,41.1,39.0,77,73,67,30.17,30.09,9,3,0,0.00
2014-1-1,48.6,47.6,46.3,45.0,42.3,39.0,90,82,72,30.14,30.05,8,2,0,0.31
2014-1-2,55.4,50.9,48.0,46.0,44.1,41.0,89,77,68,30.11,30.05,8,2,0,0.02